sensor_id;sensor_type;location;lat;lon;timestamp;pressure;altitude;pressure_sealevel;temperature
75811;BMP280;64449;50.016;19.954;2024-01-16T00:02:10;96887.80;;;1.37
75811;BMP280;64449;50.016;19.954;2024-01-16T00:04:38;96885.95;;;1.32
75811;BMP280;64449;50.016;19.954;2024-01-16T00:07:06;96884.40;;;1.28
75811;BMP280;64449;50.016;19.954;2024-01-16T00:09:34;96890.52;;;1.23
75811;BMP280;64449;50.016;19.954;2024-01-16T00:12:01;96898.15;;;1.19
75811;BMP280;64449;50.016;19.954;2024-01-16T00:14:26;96900.34;;;1.15
75811;BMP280;64449;50.016;19.954;2024-01-16T00:16:53;96906.34;;;1.13
75811;BMP280;64449;50.016;19.954;2024-01-16T00:19:18;96914.59;;;1.11
75811;BMP280;64449;50.016;19.954;2024-01-16T00:21:44;96914.48;;;1.10
75811;BMP280;64449;50.016;19.954;2024-01-16T00:24:15;96918.55;;;1.10
75811;BMP280;64449;50.016;19.954;2024-01-16T00:26:41;96920.90;;;1.10
75811;BMP280;64449;50.016;19.954;2024-01-16T00:29:06;96923.44;;;1.11
75811;BMP280;64449;50.016;19.954;2024-01-16T00:31:34;96929.45;;;1.10
75811;BMP280;64449;50.016;19.954;2024-01-16T00:34:00;96930.04;;;1.08
75811;BMP280;64449;50.016;19.954;2024-01-16T00:36:25;96933.58;;;1.07
75811;BMP280;64449;50.016;19.954;2024-01-16T00:38:50;96938.55;;;1.05
75811;BMP280;64449;50.016;19.954;2024-01-16T00:41:16;96938.79;;;1.03
75811;BMP280;64449;50.016;19.954;2024-01-16T00:43:42;96939.86;;;1.02
75811;BMP280;64449;50.016;19.954;2024-01-16T00:46:08;96942.09;;;1.01
75811;BMP280;64449;50.016;19.954;2024-01-16T00:48:33;96945.73;;;0.99
75811;BMP280;64449;50.016;19.954;2024-01-16T00:50:59;96948.23;;;0.97
75811;BMP280;64449;50.016;19.954;2024-01-16T00:53:26;96951.60;;;0.95
75811;BMP280;64449;50.016;19.954;2024-01-16T00:55:52;96955.66;;;0.93
75811;BMP280;64449;50.016;19.954;2024-01-16T00:58:21;96955.10;;;0.90
75811;BMP280;64449;50.016;19.954;2024-01-16T01:00:46;96959.57;;;0.89
75811;BMP280;64449;50.016;19.954;2024-01-16T01:03:12;96963.15;;;0.89
75811;BMP280;64449;50.016;19.954;2024-01-16T01:05:37;96962.31;;;0.87
75811;BMP280;64449;50.016;19.954;2024-01-16T01:08:03;96960.88;;;0.85
75811;BMP280;64449;50.016;19.954;2024-01-16T01:10:29;96964.48;;;0.84
75811;BMP280;64449;50.016;19.954;2024-01-16T01:12:54;96976.67;;;0.84
75811;BMP280;64449;50.016;19.954;2024-01-16T01:15:20;96977.14;;;0.84
75811;BMP280;64449;50.016;19.954;2024-01-16T01:17:48;96979.10;;;0.83
75811;BMP280;64449;50.016;19.954;2024-01-16T01:20:14;96984.52;;;0.82
75811;BMP280;64449;50.016;19.954;2024-01-16T01:22:40;96985.13;;;0.82
75811;BMP280;64449;50.016;19.954;2024-01-16T01:25:06;96987.73;;;0.82
75811;BMP280;64449;50.016;19.954;2024-01-16T01:27:32;96991.41;;;0.82
75811;BMP280;64449;50.016;19.954;2024-01-16T01:29:57;96987.12;;;0.83
75811;BMP280;64449;50.016;19.954;2024-01-16T01:32:23;96991.89;;;0.85
75811;BMP280;64449;50.016;19.954;2024-01-16T01:34:48;96991.02;;;0.86
75811;BMP280;64449;50.016;19.954;2024-01-16T01:37:14;96996.61;;;0.88
75811;BMP280;64449;50.016;19.954;2024-01-16T01:39:40;96997.79;;;0.88
75811;BMP280;64449;50.016;19.954;2024-01-16T01:42:05;96995.24;;;0.88
75811;BMP280;64449;50.016;19.954;2024-01-16T01:44:30;97008.11;;;0.88
75811;BMP280;64449;50.016;19.954;2024-01-16T01:46:56;97005.39;;;0.87
75811;BMP280;64449;50.016;19.954;2024-01-16T01:49:22;97008.95;;;0.86
75811;BMP280;64449;50.016;19.954;2024-01-16T01:51:49;97002.92;;;0.84
75811;BMP280;64449;50.016;19.954;2024-01-16T01:54:15;97002.40;;;0.83
75811;BMP280;64449;50.016;19.954;2024-01-16T01:56:45;97006.84;;;0.83
75811;BMP280;64449;50.016;19.954;2024-01-16T01:59:12;97010.14;;;0.84
75811;BMP280;64449;50.016;19.954;2024-01-16T02:01:39;97004.02;;;0.83
75811;BMP280;64449;50.016;19.954;2024-01-16T02:04:06;97000.73;;;0.81
75811;BMP280;64449;50.016;19.954;2024-01-16T02:06:32;96998.80;;;0.80
75811;BMP280;64449;50.016;19.954;2024-01-16T02:08:58;96997.11;;;0.79
75811;BMP280;64449;50.016;19.954;2024-01-16T02:11:24;96994.64;;;0.77
75811;BMP280;64449;50.016;19.954;2024-01-16T02:13:50;97003.98;;;0.76
75811;BMP280;64449;50.016;19.954;2024-01-16T02:16:20;97009.54;;;0.74
75811;BMP280;64449;50.016;19.954;2024-01-16T02:18:46;97010.54;;;0.71
75811;BMP280;64449;50.016;19.954;2024-01-16T02:21:12;97012.40;;;0.69
75811;BMP280;64449;50.016;19.954;2024-01-16T02:23:40;97006.80;;;0.66
75811;BMP280;64449;50.016;19.954;2024-01-16T02:26:06;97009.63;;;0.65
75811;BMP280;64449;50.016;19.954;2024-01-16T02:28:32;97014.98;;;0.63
75811;BMP280;64449;50.016;19.954;2024-01-16T02:30:57;97015.58;;;0.61
75811;BMP280;64449;50.016;19.954;2024-01-16T02:33:23;97025.26;;;0.60
75811;BMP280;64449;50.016;19.954;2024-01-16T02:35:48;97026.90;;;0.59
75811;BMP280;64449;50.016;19.954;2024-01-16T02:38:13;97026.75;;;0.59
75811;BMP280;64449;50.016;19.954;2024-01-16T02:40:39;97028.49;;;0.61
75811;BMP280;64449;50.016;19.954;2024-01-16T02:43:06;97028.65;;;0.61
75811;BMP280;64449;50.016;19.954;2024-01-16T02:45:32;97028.11;;;0.62
75811;BMP280;64449;50.016;19.954;2024-01-16T02:47:57;97026.72;;;0.63
75811;BMP280;64449;50.016;19.954;2024-01-16T02:50:23;97025.89;;;0.64
75811;BMP280;64449;50.016;19.954;2024-01-16T02:52:48;97028.86;;;0.65
75811;BMP280;64449;50.016;19.954;2024-01-16T02:55:14;97031.20;;;0.67
75811;BMP280;64449;50.016;19.954;2024-01-16T02:57:39;97033.55;;;0.70
75811;BMP280;64449;50.016;19.954;2024-01-16T03:00:06;97032.41;;;0.72
75811;BMP280;64449;50.016;19.954;2024-01-16T03:02:33;97031.45;;;0.73
75811;BMP280;64449;50.016;19.954;2024-01-16T03:04:58;97032.09;;;0.75
75811;BMP280;64449;50.016;19.954;2024-01-16T03:07:24;97035.12;;;0.77
75811;BMP280;64449;50.016;19.954;2024-01-16T03:09:49;97031.71;;;0.78
75811;BMP280;64449;50.016;19.954;2024-01-16T03:12:15;97033.23;;;0.80
75811;BMP280;64449;50.016;19.954;2024-01-16T03:14:40;97034.39;;;0.82
75811;BMP280;64449;50.016;19.954;2024-01-16T03:17:06;97037.17;;;0.84
75811;BMP280;64449;50.016;19.954;2024-01-16T03:19:32;97041.15;;;0.86
75811;BMP280;64449;50.016;19.954;2024-01-16T03:21:57;97041.48;;;0.88
75811;BMP280;64449;50.016;19.954;2024-01-16T03:24:23;97048.52;;;0.89
75811;BMP280;64449;50.016;19.954;2024-01-16T03:26:49;97047.59;;;0.93
75811;BMP280;64449;50.016;19.954;2024-01-16T03:29:14;97053.08;;;0.96
75811;BMP280;64449;50.016;19.954;2024-01-16T03:31:40;97049.09;;;0.98
75811;BMP280;64449;50.016;19.954;2024-01-16T03:34:05;97052.61;;;1.00
75811;BMP280;64449;50.016;19.954;2024-01-16T03:36:33;97047.66;;;1.03
75811;BMP280;64449;50.016;19.954;2024-01-16T03:38:59;97051.42;;;1.06
75811;BMP280;64449;50.016;19.954;2024-01-16T03:41:24;97051.15;;;1.09
75811;BMP280;64449;50.016;19.954;2024-01-16T03:43:50;97054.25;;;1.10
75811;BMP280;64449;50.016;19.954;2024-01-16T03:46:15;97054.20;;;1.12
75811;BMP280;64449;50.016;19.954;2024-01-16T03:48:40;97050.65;;;1.12
75811;BMP280;64449;50.016;19.954;2024-01-16T03:51:06;97054.90;;;1.13
75811;BMP280;64449;50.016;19.954;2024-01-16T03:53:32;97051.80;;;1.15
75811;BMP280;64449;50.016;19.954;2024-01-16T03:55:58;97051.70;;;1.18
75811;BMP280;64449;50.016;19.954;2024-01-16T03:58:23;97048.55;;;1.20
75811;BMP280;64449;50.016;19.954;2024-01-16T04:00:48;97055.63;;;1.22
75811;BMP280;64449;50.016;19.954;2024-01-16T04:03:16;97056.04;;;1.24
75811;BMP280;64449;50.016;19.954;2024-01-16T04:05:42;97059.64;;;1.26
75811;BMP280;64449;50.016;19.954;2024-01-16T04:08:07;97062.39;;;1.27
75811;BMP280;64449;50.016;19.954;2024-01-16T04:10:32;97062.63;;;1.28
75811;BMP280;64449;50.016;19.954;2024-01-16T04:13:00;97068.00;;;1.30
75811;BMP280;64449;50.016;19.954;2024-01-16T04:15:26;97065.59;;;1.28
75811;BMP280;64449;50.016;19.954;2024-01-16T04:17:52;97066.68;;;1.22
75811;BMP280;64449;50.016;19.954;2024-01-16T04:20:17;97071.57;;;1.14
75811;BMP280;64449;50.016;19.954;2024-01-16T04:22:42;97073.64;;;1.09
75811;BMP280;64449;50.016;19.954;2024-01-16T04:25:08;97073.66;;;1.05
75811;BMP280;64449;50.016;19.954;2024-01-16T04:27:34;97077.80;;;1.02
75811;BMP280;64449;50.016;19.954;2024-01-16T04:30:00;97080.47;;;0.99
75811;BMP280;64449;50.016;19.954;2024-01-16T04:32:25;97083.80;;;0.96
75811;BMP280;64449;50.016;19.954;2024-01-16T04:34:51;97085.89;;;0.96
75811;BMP280;64449;50.016;19.954;2024-01-16T04:37:16;97097.94;;;0.93
75811;BMP280;64449;50.016;19.954;2024-01-16T04:39:41;97095.15;;;0.92
75811;BMP280;64449;50.016;19.954;2024-01-16T04:42:07;97097.41;;;0.90
75811;BMP280;64449;50.016;19.954;2024-01-16T04:44:32;97099.23;;;0.90
75811;BMP280;64449;50.016;19.954;2024-01-16T04:46:58;97100.46;;;0.89
75811;BMP280;64449;50.016;19.954;2024-01-16T04:49:23;97106.64;;;0.89
75811;BMP280;64449;50.016;19.954;2024-01-16T04:51:49;97110.97;;;0.90
75811;BMP280;64449;50.016;19.954;2024-01-16T04:54:14;97123.29;;;0.93
75811;BMP280;64449;50.016;19.954;2024-01-16T04:56:40;97116.05;;;0.96
75811;BMP280;64449;50.016;19.954;2024-01-16T04:59:05;97119.65;;;0.97
75811;BMP280;64449;50.016;19.954;2024-01-16T05:01:30;97121.05;;;1.01
75811;BMP280;64449;50.016;19.954;2024-01-16T05:03:56;97121.53;;;1.03
75811;BMP280;64449;50.016;19.954;2024-01-16T05:06:21;97127.13;;;1.05
75811;BMP280;64449;50.016;19.954;2024-01-16T05:08:47;97133.17;;;1.07
75811;BMP280;64449;50.016;19.954;2024-01-16T05:11:12;97140.73;;;1.10
75811;BMP280;64449;50.016;19.954;2024-01-16T05:13:37;97138.66;;;1.11
75811;BMP280;64449;50.016;19.954;2024-01-16T05:16:03;97150.00;;;1.12
75811;BMP280;64449;50.016;19.954;2024-01-16T05:18:29;97152.71;;;1.14
75811;BMP280;64449;50.016;19.954;2024-01-16T05:20:54;97154.77;;;1.16
75811;BMP280;64449;50.016;19.954;2024-01-16T05:23:22;97159.80;;;1.17
75811;BMP280;64449;50.016;19.954;2024-01-16T05:25:47;97165.86;;;1.18
75811;BMP280;64449;50.016;19.954;2024-01-16T05:28:12;97167.54;;;1.20
75811;BMP280;64449;50.016;19.954;2024-01-16T05:30:38;97170.27;;;1.21
75811;BMP280;64449;50.016;19.954;2024-01-16T05:33:03;97182.27;;;1.22
75811;BMP280;64449;50.016;19.954;2024-01-16T05:35:29;97190.07;;;1.22
75811;BMP280;64449;50.016;19.954;2024-01-16T05:37:55;97193.99;;;1.23
75811;BMP280;64449;50.016;19.954;2024-01-16T05:40:21;97194.58;;;1.23
75811;BMP280;64449;50.016;19.954;2024-01-16T05:42:51;97202.15;;;1.23
75811;BMP280;64449;50.016;19.954;2024-01-16T05:45:17;97204.59;;;1.22
75811;BMP280;64449;50.016;19.954;2024-01-16T05:47:42;97203.48;;;1.24
75811;BMP280;64449;50.016;19.954;2024-01-16T05:50:08;97207.17;;;1.25
75811;BMP280;64449;50.016;19.954;2024-01-16T05:52:34;97215.52;;;1.26
75811;BMP280;64449;50.016;19.954;2024-01-16T05:55:00;97215.89;;;1.26
75811;BMP280;64449;50.016;19.954;2024-01-16T05:57:26;97220.85;;;1.27
75811;BMP280;64449;50.016;19.954;2024-01-16T05:59:51;97226.20;;;1.28
75811;BMP280;64449;50.016;19.954;2024-01-16T06:02:17;97225.09;;;1.29
75811;BMP280;64449;50.016;19.954;2024-01-16T06:04:43;97226.34;;;1.29
75811;BMP280;64449;50.016;19.954;2024-01-16T06:07:08;97244.29;;;1.29
75811;BMP280;64449;50.016;19.954;2024-01-16T06:09:38;97241.23;;;1.31
75811;BMP280;64449;50.016;19.954;2024-01-16T06:12:05;97238.21;;;1.32
75811;BMP280;64449;50.016;19.954;2024-01-16T06:14:32;97244.05;;;1.33
75811;BMP280;64449;50.016;19.954;2024-01-16T06:16:58;97239.44;;;1.33
75811;BMP280;64449;50.016;19.954;2024-01-16T06:19:23;97245.87;;;1.32
75811;BMP280;64449;50.016;19.954;2024-01-16T06:21:49;97250.31;;;1.32
75811;BMP280;64449;50.016;19.954;2024-01-16T06:24:14;97251.64;;;1.31
75811;BMP280;64449;50.016;19.954;2024-01-16T06:26:40;97262.09;;;1.30
75811;BMP280;64449;50.016;19.954;2024-01-16T06:29:05;97260.45;;;1.28
75811;BMP280;64449;50.016;19.954;2024-01-16T06:31:31;97270.65;;;1.26
75811;BMP280;64449;50.016;19.954;2024-01-16T06:33:56;97284.55;;;1.23
75811;BMP280;64449;50.016;19.954;2024-01-16T06:36:22;97284.00;;;1.19
75811;BMP280;64449;50.016;19.954;2024-01-16T06:38:47;97282.90;;;1.14
75811;BMP280;64449;50.016;19.954;2024-01-16T06:41:13;97292.77;;;1.10
75811;BMP280;64449;50.016;19.954;2024-01-16T06:43:38;97289.48;;;1.05
75811;BMP280;64449;50.016;19.954;2024-01-16T06:46:04;97297.94;;;1.03
75811;BMP280;64449;50.016;19.954;2024-01-16T06:48:30;97301.88;;;1.00
75811;BMP280;64449;50.016;19.954;2024-01-16T06:50:56;97307.58;;;0.96
75811;BMP280;64449;50.016;19.954;2024-01-16T06:53:21;97314.92;;;0.94
75811;BMP280;64449;50.016;19.954;2024-01-16T06:55:48;97312.36;;;0.92
75811;BMP280;64449;50.016;19.954;2024-01-16T06:58:14;97318.79;;;0.91
75811;BMP280;64449;50.016;19.954;2024-01-16T07:00:39;97323.52;;;0.91
75811;BMP280;64449;50.016;19.954;2024-01-16T07:03:07;97324.38;;;0.92
75811;BMP280;64449;50.016;19.954;2024-01-16T07:05:32;97329.77;;;0.92
75811;BMP280;64449;50.016;19.954;2024-01-16T07:07:58;97336.84;;;0.93
75811;BMP280;64449;50.016;19.954;2024-01-16T07:10:24;97335.58;;;0.94
75811;BMP280;64449;50.016;19.954;2024-01-16T07:12:49;97337.00;;;0.95
75811;BMP280;64449;50.016;19.954;2024-01-16T07:15:17;97344.82;;;0.96
75811;BMP280;64449;50.016;19.954;2024-01-16T07:17:42;97351.05;;;0.95
75811;BMP280;64449;50.016;19.954;2024-01-16T07:20:08;97361.15;;;0.95
75811;BMP280;64449;50.016;19.954;2024-01-16T07:22:33;97360.73;;;0.95
75811;BMP280;64449;50.016;19.954;2024-01-16T07:24:59;97359.40;;;0.94
75811;BMP280;64449;50.016;19.954;2024-01-16T07:27:25;97367.08;;;0.95
75811;BMP280;64449;50.016;19.954;2024-01-16T07:29:50;97373.67;;;0.97
75811;BMP280;64449;50.016;19.954;2024-01-16T07:32:15;97375.36;;;0.96
75811;BMP280;64449;50.016;19.954;2024-01-16T07:34:41;97384.23;;;0.97
75811;BMP280;64449;50.016;19.954;2024-01-16T07:37:06;97384.98;;;0.98
75811;BMP280;64449;50.016;19.954;2024-01-16T07:39:32;97386.95;;;0.97
75811;BMP280;64449;50.016;19.954;2024-01-16T07:41:58;97388.42;;;0.97
75811;BMP280;64449;50.016;19.954;2024-01-16T07:44:23;97394.80;;;0.98
75811;BMP280;64449;50.016;19.954;2024-01-16T07:46:48;97397.95;;;1.01
75811;BMP280;64449;50.016;19.954;2024-01-16T07:49:15;97396.52;;;1.03
75811;BMP280;64449;50.016;19.954;2024-01-16T07:51:41;97397.48;;;1.05
75811;BMP280;64449;50.016;19.954;2024-01-16T07:54:08;97403.07;;;1.07
75811;BMP280;64449;50.016;19.954;2024-01-16T07:56:35;97404.04;;;1.09
75811;BMP280;64449;50.016;19.954;2024-01-16T07:59:00;97401.20;;;1.11
75811;BMP280;64449;50.016;19.954;2024-01-16T08:01:27;97406.86;;;1.15
75811;BMP280;64449;50.016;19.954;2024-01-16T08:03:54;97403.66;;;1.16
75811;BMP280;64449;50.016;19.954;2024-01-16T08:06:20;97408.79;;;1.17
75811;BMP280;64449;50.016;19.954;2024-01-16T08:08:45;97414.91;;;1.17
75811;BMP280;64449;50.016;19.954;2024-01-16T08:11:12;97415.66;;;1.16
75811;BMP280;64449;50.016;19.954;2024-01-16T08:13:37;97413.19;;;1.15
75811;BMP280;64449;50.016;19.954;2024-01-16T08:16:03;97420.84;;;1.16
75811;BMP280;64449;50.016;19.954;2024-01-16T08:18:28;97427.73;;;1.19
75811;BMP280;64449;50.016;19.954;2024-01-16T08:20:54;97429.53;;;1.21
75811;BMP280;64449;50.016;19.954;2024-01-16T08:23:19;97431.19;;;1.22
75811;BMP280;64449;50.016;19.954;2024-01-16T08:25:46;97440.22;;;1.22
75811;BMP280;64449;50.016;19.954;2024-01-16T08:28:11;97438.59;;;1.23
75811;BMP280;64449;50.016;19.954;2024-01-16T08:30:37;97444.00;;;1.23
75811;BMP280;64449;50.016;19.954;2024-01-16T08:33:02;97444.75;;;1.23
75811;BMP280;64449;50.016;19.954;2024-01-16T08:35:28;97441.72;;;1.21
75811;BMP280;64449;50.016;19.954;2024-01-16T08:37:53;97454.81;;;1.25
75811;BMP280;64449;50.016;19.954;2024-01-16T08:40:19;97456.44;;;1.33
75811;BMP280;64449;50.016;19.954;2024-01-16T08:42:44;97466.65;;;1.39
75811;BMP280;64449;50.016;19.954;2024-01-16T08:45:10;97479.48;;;1.48
75811;BMP280;64449;50.016;19.954;2024-01-16T08:47:35;97482.50;;;1.53
75811;BMP280;64449;50.016;19.954;2024-01-16T08:50:00;97486.55;;;1.64
75811;BMP280;64449;50.016;19.954;2024-01-16T08:52:27;97486.89;;;1.70
75811;BMP280;64449;50.016;19.954;2024-01-16T08:54:52;97484.39;;;1.72
75811;BMP280;64449;50.016;19.954;2024-01-16T08:57:18;97486.00;;;2.08
75811;BMP280;64449;50.016;19.954;2024-01-16T08:59:43;97486.75;;;2.26
75811;BMP280;64449;50.016;19.954;2024-01-16T09:02:09;97490.67;;;2.28
75811;BMP280;64449;50.016;19.954;2024-01-16T09:04:34;97497.29;;;2.32
75811;BMP280;64449;50.016;19.954;2024-01-16T09:07:00;97504.59;;;2.39
75811;BMP280;64449;50.016;19.954;2024-01-16T09:09:26;97503.73;;;2.55
75811;BMP280;64449;50.016;19.954;2024-01-16T09:11:51;97508.37;;;2.56
75811;BMP280;64449;50.016;19.954;2024-01-16T09:14:17;97513.46;;;2.56
75811;BMP280;64449;50.016;19.954;2024-01-16T09:16:42;97513.08;;;2.56
75811;BMP280;64449;50.016;19.954;2024-01-16T09:19:08;97513.28;;;2.58
75811;BMP280;64449;50.016;19.954;2024-01-16T09:21:35;97509.19;;;2.62
75811;BMP280;64449;50.016;19.954;2024-01-16T09:24:00;97505.33;;;2.71
75811;BMP280;64449;50.016;19.954;2024-01-16T09:26:25;97510.21;;;2.78
75811;BMP280;64449;50.016;19.954;2024-01-16T09:28:51;97508.51;;;2.84
75811;BMP280;64449;50.016;19.954;2024-01-16T09:31:16;97512.78;;;3.14
75811;BMP280;64449;50.016;19.954;2024-01-16T09:33:41;97511.17;;;3.25
75811;BMP280;64449;50.016;19.954;2024-01-16T09:36:08;97504.44;;;3.22
75811;BMP280;64449;50.016;19.954;2024-01-16T09:38:34;97507.53;;;3.28
75811;BMP280;64449;50.016;19.954;2024-01-16T09:41:00;97512.95;;;3.63
75811;BMP280;64449;50.016;19.954;2024-01-16T09:43:27;97510.09;;;3.79
75811;BMP280;64449;50.016;19.954;2024-01-16T09:45:54;97511.05;;;3.95
75811;BMP280;64449;50.016;19.954;2024-01-16T09:48:20;97507.65;;;4.11
75811;BMP280;64449;50.016;19.954;2024-01-16T09:50:45;97503.15;;;4.10
75811;BMP280;64449;50.016;19.954;2024-01-16T09:53:10;97512.09;;;4.09
75811;BMP280;64449;50.016;19.954;2024-01-16T09:55:37;97505.13;;;4.10
75811;BMP280;64449;50.016;19.954;2024-01-16T09:58:05;97513.42;;;4.33
75811;BMP280;64449;50.016;19.954;2024-01-16T10:00:34;97511.16;;;4.42
75811;BMP280;64449;50.016;19.954;2024-01-16T10:03:01;97521.48;;;4.46
75811;BMP280;64449;50.016;19.954;2024-01-16T10:05:27;97520.77;;;4.46
75811;BMP280;64449;50.016;19.954;2024-01-16T10:07:52;97525.52;;;4.33
75811;BMP280;64449;50.016;19.954;2024-01-16T10:10:18;97517.14;;;4.10
75811;BMP280;64449;50.016;19.954;2024-01-16T10:12:45;97523.64;;;3.86
75811;BMP280;64449;50.016;19.954;2024-01-16T10:15:14;97529.67;;;3.61
75811;BMP280;64449;50.016;19.954;2024-01-16T10:17:42;97528.38;;;3.43
75811;BMP280;64449;50.016;19.954;2024-01-16T10:20:11;97522.98;;;3.30
75811;BMP280;64449;50.016;19.954;2024-01-16T10:22:52;97527.79;;;3.19
75811;BMP280;64449;50.016;19.954;2024-01-16T10:25:18;97527.67;;;3.06
75811;BMP280;64449;50.016;19.954;2024-01-16T10:27:45;97530.14;;;2.96
75811;BMP280;64449;50.016;19.954;2024-01-16T10:30:11;97528.48;;;2.88
75811;BMP280;64449;50.016;19.954;2024-01-16T10:32:41;97541.84;;;2.84
75811;BMP280;64449;50.016;19.954;2024-01-16T10:35:11;97546.54;;;2.81
75811;BMP280;64449;50.016;19.954;2024-01-16T10:37:47;97551.07;;;2.76
75811;BMP280;64449;50.016;19.954;2024-01-16T10:40:20;97550.41;;;2.74
75811;BMP280;64449;50.016;19.954;2024-01-16T10:42:59;97551.42;;;2.76
75811;BMP280;64449;50.016;19.954;2024-01-16T10:45:25;97557.88;;;2.82
75811;BMP280;64449;50.016;19.954;2024-01-16T10:48:05;97556.78;;;2.87
75811;BMP280;64449;50.016;19.954;2024-01-16T10:50:32;97556.41;;;2.83
75811;BMP280;64449;50.016;19.954;2024-01-16T10:53:00;97559.05;;;2.82
75811;BMP280;64449;50.016;19.954;2024-01-16T10:55:28;97559.70;;;2.84
75811;BMP280;64449;50.016;19.954;2024-01-16T10:57:56;97554.77;;;2.86
75811;BMP280;64449;50.016;19.954;2024-01-16T11:00:22;97554.98;;;2.86
75811;BMP280;64449;50.016;19.954;2024-01-16T11:03:03;97559.13;;;2.90
75811;BMP280;64449;50.016;19.954;2024-01-16T11:05:31;97554.52;;;2.93
75811;BMP280;64449;50.016;19.954;2024-01-16T11:08:01;97557.12;;;2.97
75811;BMP280;64449;50.016;19.954;2024-01-16T11:10:27;97554.06;;;3.03
75811;BMP280;64449;50.016;19.954;2024-01-16T11:12:55;97553.59;;;3.11
75811;BMP280;64449;50.016;19.954;2024-01-16T11:15:21;97556.30;;;3.15
75811;BMP280;64449;50.016;19.954;2024-01-16T11:17:47;97556.25;;;3.18
75811;BMP280;64449;50.016;19.954;2024-01-16T11:20:15;97559.56;;;3.22
75811;BMP280;64449;50.016;19.954;2024-01-16T11:22:43;97558.63;;;3.22
75811;BMP280;64449;50.016;19.954;2024-01-16T11:25:16;97554.98;;;3.21
75811;BMP280;64449;50.016;19.954;2024-01-16T11:27:45;97561.42;;;3.21
75811;BMP280;64449;50.016;19.954;2024-01-16T11:30:29;97554.73;;;3.21
75811;BMP280;64449;50.016;19.954;2024-01-16T11:32:55;97556.39;;;3.26
75811;BMP280;64449;50.016;19.954;2024-01-16T11:35:32;97559.18;;;3.49
75811;BMP280;64449;50.016;19.954;2024-01-16T11:38:16;97562.52;;;4.05
75811;BMP280;64449;50.016;19.954;2024-01-16T11:40:42;97566.55;;;4.48
75811;BMP280;64449;50.016;19.954;2024-01-16T11:43:37;97557.51;;;4.58
75811;BMP280;64449;50.016;19.954;2024-01-16T11:46:07;97564.89;;;4.63
75811;BMP280;64449;50.016;19.954;2024-01-16T11:48:33;97565.76;;;4.61
75811;BMP280;64449;50.016;19.954;2024-01-16T11:50:59;97567.95;;;4.55
75811;BMP280;64449;50.016;19.954;2024-01-16T11:53:32;97569.14;;;4.67
75811;BMP280;64449;50.016;19.954;2024-01-16T11:59:18;97574.87;;;5.23
75811;BMP280;64449;50.016;19.954;2024-01-16T12:01:44;97587.47;;;5.12
75811;BMP280;64449;50.016;19.954;2024-01-16T12:04:10;97586.77;;;4.91
75811;BMP280;64449;50.016;19.954;2024-01-16T12:06:36;97595.57;;;4.76
75811;BMP280;64449;50.016;19.954;2024-01-16T12:09:15;97591.91;;;4.64
75811;BMP280;64449;50.016;19.954;2024-01-16T12:11:41;97591.59;;;4.52
75811;BMP280;64449;50.016;19.954;2024-01-16T12:14:13;97595.88;;;4.44
75811;BMP280;64449;50.016;19.954;2024-01-16T12:16:38;97593.40;;;4.73
75811;BMP280;64449;50.016;19.954;2024-01-16T12:19:10;97591.85;;;5.09
75811;BMP280;64449;50.016;19.954;2024-01-16T12:21:41;97586.71;;;5.35
75811;BMP280;64449;50.016;19.954;2024-01-16T12:24:07;97591.61;;;5.32
75811;BMP280;64449;50.016;19.954;2024-01-16T12:26:33;97593.42;;;5.25
75811;BMP280;64449;50.016;19.954;2024-01-16T12:28:58;97593.89;;;5.15
75811;BMP280;64449;50.016;19.954;2024-01-16T12:31:25;97601.41;;;5.05
75811;BMP280;64449;50.016;19.954;2024-01-16T12:33:51;97599.17;;;4.91
75811;BMP280;64449;50.016;19.954;2024-01-16T12:36:17;97597.67;;;4.74
75811;BMP280;64449;50.016;19.954;2024-01-16T12:38:42;97607.73;;;4.58
75811;BMP280;64449;50.016;19.954;2024-01-16T12:41:09;97608.73;;;4.46
75811;BMP280;64449;50.016;19.954;2024-01-16T12:43:36;97613.70;;;4.33
75811;BMP280;64449;50.016;19.954;2024-01-16T12:46:04;97616.45;;;4.20
75811;BMP280;64449;50.016;19.954;2024-01-16T12:48:31;97627.71;;;4.07
75811;BMP280;64449;50.016;19.954;2024-01-16T12:51:01;97631.60;;;3.88
75811;BMP280;64449;50.016;19.954;2024-01-16T12:53:27;97637.31;;;3.70
75811;BMP280;64449;50.016;19.954;2024-01-16T12:56:00;97638.66;;;3.58
75811;BMP280;64449;50.016;19.954;2024-01-16T12:58:35;97645.68;;;3.43
75811;BMP280;64449;50.016;19.954;2024-01-16T13:01:23;97646.48;;;3.31
75811;BMP280;64449;50.016;19.954;2024-01-16T13:03:50;97645.55;;;3.20
75811;BMP280;64449;50.016;19.954;2024-01-16T13:06:22;97637.54;;;3.13
75811;BMP280;64449;50.016;19.954;2024-01-16T13:08:49;97634.65;;;3.05
75811;BMP280;64449;50.016;19.954;2024-01-16T13:11:15;97639.95;;;2.95
75811;BMP280;64449;50.016;19.954;2024-01-16T13:13:44;97644.04;;;2.88
75811;BMP280;64449;50.016;19.954;2024-01-16T13:16:10;97646.92;;;2.85
75811;BMP280;64449;50.016;19.954;2024-01-16T13:18:36;97655.44;;;2.82
75811;BMP280;64449;50.016;19.954;2024-01-16T13:21:02;97659.58;;;2.81
75811;BMP280;64449;50.016;19.954;2024-01-16T13:23:28;97665.61;;;2.89
75811;BMP280;64449;50.016;19.954;2024-01-16T13:25:55;97670.98;;;2.96
75811;BMP280;64449;50.016;19.954;2024-01-16T13:28:21;97673.91;;;3.17
75811;BMP280;64449;50.016;19.954;2024-01-16T13:30:47;97673.80;;;3.34
75811;BMP280;64449;50.016;19.954;2024-01-16T13:33:14;97678.23;;;3.52
75811;BMP280;64449;50.016;19.954;2024-01-16T13:35:42;97679.31;;;3.66
75811;BMP280;64449;50.016;19.954;2024-01-16T13:38:09;97684.48;;;3.71
75811;BMP280;64449;50.016;19.954;2024-01-16T13:40:36;97688.33;;;3.70
75811;BMP280;64449;50.016;19.954;2024-01-16T13:43:05;97690.43;;;3.67
75811;BMP280;64449;50.016;19.954;2024-01-16T13:45:34;97692.82;;;3.62
75811;BMP280;64449;50.016;19.954;2024-01-16T13:48:04;97693.61;;;3.57
75811;BMP280;64449;50.016;19.954;2024-01-16T13:50:31;97699.86;;;3.51
75811;BMP280;64449;50.016;19.954;2024-01-16T13:52:57;97706.64;;;3.46
75811;BMP280;64449;50.016;19.954;2024-01-16T13:55:22;97709.17;;;3.42
75811;BMP280;64449;50.016;19.954;2024-01-16T13:57:48;97710.52;;;3.35
75811;BMP280;64449;50.016;19.954;2024-01-16T14:00:14;97718.33;;;3.28
75811;BMP280;64449;50.016;19.954;2024-01-16T14:02:42;97723.23;;;3.23
75811;BMP280;64449;50.016;19.954;2024-01-16T14:05:12;97724.60;;;3.16
75811;BMP280;64449;50.016;19.954;2024-01-16T14:07:41;97725.95;;;3.10
75811;BMP280;64449;50.016;19.954;2024-01-16T14:10:10;97730.41;;;3.02